Alverca, Portugal

10:34 PM WET on November 24, 2014 (GMT +0000)
Fanhões - Loures | Change Station
CLOSE
Current Station
Personal Weather Station
Location: Fanhões, LISBOA
Elevation: 522 ft
Nearby Weather Stations

Elev 522 ft 38.88 °N, 9.15 °W | Updated 4 minutes ago

Partly Cloudy
Partly Cloudy
57.7 °F
Feels Like 57.7 °F
N
4.5
Wind Variable Wind from NNE
Gusts 10.7 mph

Today
High -- | Low -- °F
--% Chance of Precip.
Yesterday
High -- | Low -- °F
Precip. -- in
7:28 AM 5:16 PM
Waxing Crescent, 7% visible
Pressure 30.09 in
Visibility 6.2 miles
Clouds Few 1100 ft
Dew Point 55 °F
Humidity 91%
Rainfall 0.00 in
Snow Depth Not available.
UV 0.0 out of 12
Pollen Not available.
Air Quality Not available.
Flu Activity Not available.
METAR LPPT 242200Z 32011KT 300V360 9999 FEW011 15/13 Q1019

More Conditions Fewer Conditions

Pressure 30.09 in
Visibility 6.2 miles
Clouds Few 1100 ft
Dew Point 55 °F
Humidity 91%
Rainfall 0.00 in
Snow Depth Not available.
UV 0.0 out of 12
Pollen Not available.
Air Quality Not available.
Flu Activity Not available.
METAR LPPT 242200Z 32011KT 300V360 9999 FEW011 15/13 Q1019

More Conditions Fewer Conditions

10-Day Weather Forecast

Almanac

Astronomy

Nov. 24, 2014 Rise Set
Actual Time
Civil Twilight
Nautical Twilight
Astronomical Twilight
Moon
Length of Visible Light
Length of Day
Tomorrow will be .
, % of the Moon is Illuminated

Today's Extremes

Country Highs Country Lows

Community

WunderPhotos

Upload Photos

1,773,427 photos uploaded!

WunderBlogs® & News

Nearby

Air Quality

  Air Quality AQ Index Pollutant
Not available.

Snow Depth

Station Depth Elevation

Earthquake Activity

City Distance Mag. Time & Date
Minimum magnitude displayed is 2.5.

Coastal Water Temperatures

Place Temperature

Nearby Weather Stations